Time;durP1;ratioP1;P1;durP2;ratioP2;P2;SDS_P1;SDS_P2;PMS_P1;PMS_P2;Temp;Humidity;BMP_temperature;BMP_pressure;BME280_temperature;BME280_humidity;BME280_pressure;Samples;Min_cycle;Max_cycle;Signal;HPM_P1;HPM_P2
2022/08/19 00:01:15;;;;;;;40.10;15.60;;;19.80;99.90;;;;;;5050765;28;20032;-53
2022/08/19 00:04:24;;;;;;;31.75;14.82;;;19.80;99.90;;;;;;5030545;28;20048;-53
2022/08/19 00:07:28;;;;;;;31.40;14.23;;;19.90;99.90;;;;;;5030706;28;20516;-49
2022/08/19 00:10:32;;;;;;;48.90;14.52;;;19.90;99.90;;;;;;5030402;28;20060;-53
2022/08/19 00:13:37;;;;;;;40.42;13.77;;;19.80;99.90;;;;;;5030249;28;20409;-50
2022/08/19 00:16:44;;;;;;;29.90;13.68;;;19.80;99.90;;;;;;5030666;28;20401;-53
2022/08/19 00:19:48;;;;;;;29.02;12.50;;;19.90;99.90;;;;;;5030354;28;20064;-51
2022/08/19 00:22:52;;;;;;;35.22;13.18;;;19.90;99.90;;;;;;5030413;28;20060;-50
2022/08/19 00:25:56;;;;;;;25.30;12.35;;;19.90;99.90;;;;;;5030360;28;20052;-50
2022/08/19 00:29:00;;;;;;;35.13;12.13;;;19.90;99.90;;;;;;5030217;28;20045;-55
2022/08/19 00:32:06;;;;;;;33.45;12.73;;;19.80;99.90;;;;;;5030051;28;20053;-50
2022/08/19 00:35:10;;;;;;;56.75;16.38;;;19.80;99.90;;;;;;5029771;28;20049;-53
2022/08/19 00:38:14;;;;;;;44.15;17.55;;;19.60;99.90;;;;;;5029648;28;20511;-50
2022/08/19 00:41:21;;;;;;;55.13;19.33;;;19.60;99.90;;;;;;5029843;28;20044;-51
2022/08/19 00:44:28;;;;;;;44.10;18.48;;;19.60;99.90;;;;;;5029587;28;20044;-51
2022/08/19 00:47:31;;;;;;;44.10;16.92;;;19.70;99.90;;;;;;5040569;28;20355;-52
2022/08/19 00:50:35;;;;;;;39.60;16.48;;;19.70;99.90;;;;;;5029644;28;20045;-51
2022/08/19 00:53:40;;;;;;;38.53;16.67;;;19.70;99.90;;;;;;5029060;28;20052;-54
2022/08/19 00:56:45;;;;;;;37.42;15.55;;;19.80;99.90;;;;;;5029991;28;20044;-52
2022/08/19 00:59:52;;;;;;;30.00;14.52;;;19.80;99.90;;;;;;5029303;28;20048;-52
2022/08/19 01:02:57;;;;;;;38.13;16.25;;;19.80;99.90;;;;;;5029969;28;20044;-49
2022/08/19 01:06:02;;;;;;;44.95;14.70;;;19.90;99.90;;;;;;5029559;28;20044;-52
2022/08/19 01:09:06;;;;;;;29.70;13.15;;;20.00;99.90;;;;;;5029730;28;20052;-51
2022/08/19 01:12:10;;;;;;;32.47;13.02;;;20.10;99.90;;;;;;5029753;28;20052;-50
2022/08/19 01:15:18;;;;;;;32.38;15.35;;;20.10;99.90;;;;;;5029148;28;20049;-51
2022/08/19 01:18:25;;;;;;;41.20;14.45;;;20.00;99.90;;;;;;5029420;28;20044;-51
2022/08/19 01:21:40;;;;;;;46.85;17.48;;;19.90;99.90;;;;;;5029507;28;20044;-52
2022/08/19 01:24:44;;;;;;;37.10;16.13;;;19.90;99.90;;;;;;5028846;28;20825;-53
2022/08/19 01:27:49;;;;;;;32.53;15.00;;;19.80;99.90;;;;;;5029375;28;20048;-50
2022/08/19 01:30:55;;;;;;;36.42;15.68;;;19.70;99.90;;;;;;5029263;28;20052;-51
2022/08/19 01:34:00;;;;;;;26.48;12.50;;;19.70;99.90;;;;;;5029398;28;20546;-49
2022/08/19 01:37:11;;;;;;;32.38;13.27;;;19.70;99.90;;;;;;5029436;28;20060;-52
2022/08/19 01:40:16;;;;;;;32.38;11.32;;;19.70;99.90;;;;;;5029867;28;20326;-50
2022/08/19 01:43:20;;;;;;;25.63;11.60;;;19.70;99.90;;;;;;5029144;28;20507;-51
2022/08/19 01:46:25;;;;;;;30.80;10.80;;;19.70;99.90;;;;;;5029381;28;20045;-50
2022/08/19 01:49:29;;;;;;;31.23;11.13;;;19.70;99.90;;;;;;5028706;28;20068;-50
2022/08/19 01:52:35;;;;;;;27.10;12.20;;;19.60;99.90;;;;;;5033077;28;20424;-52
2022/08/19 01:55:42;;;;;;;26.02;11.98;;;19.50;99.90;;;;;;5032692;28;20045;-52
2022/08/19 01:59:03;;;;;;;36.50;13.35;;;19.50;99.90;;;;;;5031742;28;20044;-50
2022/08/19 02:02:09;;;;;;;33.60;13.13;;;19.50;99.90;;;;;;5032761;28;20045;-51
2022/08/19 02:05:13;;;;;;;34.47;14.80;;;19.50;99.90;;;;;;5032632;28;20044;-50
2022/08/19 02:08:17;;;;;;;30.88;13.80;;;19.50;99.90;;;;;;5032849;28;20519;-49
2022/08/19 02:11:26;;;;;;;32.83;14.32;;;19.50;99.90;;;;;;5032818;28;20056;-52
2022/08/19 02:14:30;;;;;;;27.60;12.20;;;19.50;99.90;;;;;;5032622;28;20584;-50
2022/08/19 02:17:34;;;;;;;33.55;14.75;;;19.50;99.90;;;;;;5033133;28;20060;-52
2022/08/19 02:20:40;;;;;;;36.13;13.52;;;19.60;99.90;;;;;;5033033;28;20396;-50
2022/08/19 02:23:45;;;;;;;45.58;14.90;;;19.60;99.90;;;;;;5032678;28;20052;-51
2022/08/19 02:26:49;;;;;;;29.20;12.50;;;19.60;99.90;;;;;;5032644;28;20056;-52
2022/08/19 02:29:53;;;;;;;23.95;13.48;;;19.60;99.90;;;;;;5032730;28;20048;-50
2022/08/19 02:32:57;;;;;;;88.57;17.77;;;19.60;99.90;;;;;;5032433;28;20048;-53
2022/08/19 02:36:04;;;;;;;37.92;15.98;;;19.60;99.90;;;;;;5032491;28;20041;-50
2022/08/19 02:39:09;;;;;;;25.95;13.75;;;19.60;99.90;;;;;;5032333;28;20040;-50
2022/08/19 02:42:13;;;;;;;38.47;16.15;;;19.60;99.90;;;;;;5032562;28;20072;-50
2022/08/19 02:45:17;;;;;;;222.27;21.95;;;19.60;99.90;;;;;;5031888;28;20048;-50
2022/08/19 02:48:23;;;;;;;46.75;15.60;;;19.50;99.90;;;;;;5032301;28;20397;-51
2022/08/19 02:51:38;;;;;;;32.90;13.77;;;19.50;99.90;;;;;;5031973;28;20056;-53
2022/08/19 02:54:43;;;;;;;30.95;12.82;;;19.50;99.90;;;;;;5031886;28;20056;-49
2022/08/19 02:57:47;;;;;;;24.23;11.30;;;19.50;99.90;;;;;;5031590;28;20049;-49
2022/08/19 03:00:54;;;;;;;32.15;12.45;;;19.60;99.90;;;;;;5031290;28;20048;-51
2022/08/19 03:04:00;;;;;;;31.50;13.13;;;19.50;99.90;;;;;;5031720;28;20057;-50
2022/08/19 03:07:04;;;;;;;31.85;12.55;;;19.60;99.90;;;;;;5031807;28;20049;-50
2022/08/19 03:10:08;;;;;;;30.40;12.70;;;19.60;99.90;;;;;;5031779;28;20587;-48
2022/08/19 03:13:17;;;;;;;27.92;12.85;;;19.60;99.90;;;;;;5031930;28;20409;-50
2022/08/19 03:16:25;;;;;;;34.90;15.20;;;19.60;99.90;;;;;;5030759;28;20044;-54
2022/08/19 03:19:28;;;;;;;33.85;15.38;;;19.60;99.90;;;;;;5031494;28;20064;-51
2022/08/19 03:22:32;;;;;;;46.63;14.85;;;19.50;99.90;;;;;;5031422;28;20060;-51
2022/08/19 03:25:42;;;;;;;37.17;13.43;;;19.50;99.90;;;;;;5030804;28;20044;-50
2022/08/19 03:28:49;;;;;;;44.58;15.55;;;19.50;99.90;;;;;;5031469;28;20412;-49
2022/08/19 03:31:54;;;;;;;35.80;13.63;;;19.50;99.90;;;;;;5031308;28;20404;-53
2022/08/19 03:34:58;;;;;;;42.30;14.27;;;19.50;99.90;;;;;;5031033;28;20052;-52
2022/08/19 03:38:04;;;;;;;39.33;14.80;;;19.60;99.90;;;;;;5030933;28;20056;-50
2022/08/19 03:41:12;;;;;;;35.78;15.23;;;19.50;99.90;;;;;;5030867;28;20523;-52
2022/08/19 03:44:23;;;;;;;36.55;16.25;;;19.50;99.90;;;;;;5030677;28;20056;-50
2022/08/19 03:47:26;;;;;;;43.55;16.58;;;19.50;99.90;;;;;;5030775;28;20048;-52
2022/08/19 03:50:30;;;;;;;43.90;17.90;;;19.50;99.90;;;;;;5030994;28;20064;-50
2022/08/19 03:53:35;;;;;;;43.03;17.83;;;19.50;99.90;;;;;;5030609;28;20048;-51
2022/08/19 03:56:40;;;;;;;35.58;16.17;;;19.50;99.90;;;;;;5030729;28;20040;-52
2022/08/19 03:59:44;;;;;;;37.58;17.55;;;19.50;99.90;;;;;;5030673;28;20060;-52
2022/08/19 04:02:48;;;;;;;46.92;19.30;;;19.50;99.90;;;;;;5030600;28;20057;-52
2022/08/19 04:05:53;;;;;;;48.40;22.00;;;19.30;99.90;;;;;;5030698;28;20044;-50
2022/08/19 04:08:59;;;;;;;47.17;20.25;;;19.30;99.90;;;;;;5030668;28;20413;-51
2022/08/19 04:12:05;;;;;;;45.83;19.25;;;19.30;99.90;;;;;;5029964;28;20057;-50
2022/08/19 04:15:09;;;;;;;36.85;18.95;;;19.30;99.90;;;;;;5030056;28;20040;-51
2022/08/19 04:18:14;;;;;;;35.70;17.42;;;19.30;99.90;;;;;;5029846;28;20044;-52
2022/08/19 04:21:21;;;;;;;50.17;18.85;;;19.30;99.90;;;;;;5030448;28;20041;-51
2022/08/19 04:24:25;;;;;;;38.55;19.15;;;19.40;99.90;;;;;;5029951;28;20044;-49
2022/08/19 04:27:31;;;;;;;49.05;18.52;;;19.40;99.90;;;;;;5030082;28;20949;-49
2022/08/19 04:30:47;;;;;;;37.58;19.15;;;19.40;99.90;;;;;;5030011;28;20048;-49
2022/08/19 04:33:53;;;;;;;39.95;17.55;;;19.40;99.90;;;;;;5030219;28;20178;-53
2022/08/19 04:36:58;;;;;;;37.42;16.27;;;19.40;99.90;;;;;;5029914;28;20040;-52
2022/08/19 04:43:29;;;;;;;32.22;14.80;;;19.40;99.90;;;;;;5029935;28;20044;-50
2022/08/19 04:46:33;;;;;;;36.90;14.57;;;19.50;99.90;;;;;;5030194;28;20060;-49
2022/08/19 04:49:37;;;;;;;29.48;14.35;;;19.40;99.90;;;;;;5029816;28;20048;-51
2022/08/19 04:52:42;;;;;;;35.72;14.23;;;19.40;99.90;;;;;;5029543;28;20068;-49
2022/08/19 04:55:46;;;;;;;32.70;12.07;;;19.50;99.90;;;;;;5029871;28;20396;-49
2022/08/19 04:58:51;;;;;;;28.45;11.05;;;19.50;99.90;;;;;;5029672;28;20048;-50
2022/08/19 05:01:55;;;;;;;25.20;9.07;;;19.50;99.90;;;;;;5040716;28;20048;-49
2022/08/19 05:05:00;;;;;;;21.90;9.15;;;19.50;99.90;;;;;;5030247;28;20056;-49
2022/08/19 05:08:04;;;;;;;22.30;8.60;;;19.60;99.90;;;;;;5029504;28;20436;-53
2022/08/19 05:11:15;;;;;;;30.35;8.88;;;19.60;99.90;;;;;;5030038;28;20056;-51
2022/08/19 05:14:20;;;;;;;28.60;8.73;;;19.70;99.90;;;;;;5029258;28;20045;-48
2022/08/19 05:17:28;;;;;;;26.73;8.43;;;19.70;99.90;;;;;;5029673;28;20068;-49
2022/08/19 05:23:54;;;;;;;24.95;7.88;;;19.90;99.90;;;;;;5030520;28;20080;-49
2022/08/19 05:26:58;;;;;;;27.38;8.23;;;20.10;99.90;;;;;;5033737;28;20044;-49
2022/08/19 05:30:04;;;;;;;25.15;8.85;;;20.10;99.90;;;;;;5033484;28;20040;-49
2022/08/19 05:33:09;;;;;;;16.70;7.05;;;20.20;99.90;;;;;;5033567;28;20045;-47
2022/08/19 05:36:14;;;;;;;19.88;7.25;;;20.40;99.90;;;;;;5033685;28;20048;-49
2022/08/19 05:39:20;;;;;;;23.88;6.80;;;20.70;99.90;;;;;;5033202;28;20029;-49
2022/08/19 05:42:24;;;;;;;25.52;6.63;;;21.00;99.90;;;;;;5033089;28;20060;-49
2022/08/19 05:45:28;;;;;;;22.67;6.57;;;21.70;99.90;;;;;;5032957;28;20044;-49
2022/08/19 05:48:35;;;;;;;23.85;6.97;;;22.00;99.90;;;;;;5032368;28;20052;-50
2022/08/19 05:51:39;;;;;;;23.55;7.75;;;22.40;99.90;;;;;;5032598;28;20052;-49
2022/08/19 05:54:44;;;;;;;20.83;6.57;;;23.00;99.90;;;;;;5033276;28;20053;-52
2022/08/19 05:57:48;;;;;;;16.77;5.30;;;24.30;99.90;;;;;;5033011;28;20044;-49
2022/08/19 06:00:54;;;;;;;20.33;6.35;;;24.50;99.90;;;;;;5033180;28;20052;-50
2022/08/19 06:03:59;;;;;;;22.63;7.05;;;24.10;99.90;;;;;;5033001;28;20056;-49
2022/08/19 06:07:04;;;;;;;20.92;6.70;;;23.60;99.90;;;;;;5033162;28;20416;-49
2022/08/19 06:10:11;;;;;;;23.17;7.13;;;22.80;99.90;;;;;;5031453;28;20125;-49
2022/08/19 06:13:14;;;;;;;21.02;7.63;;;22.50;99.90;;;;;;5032366;28;20091;-48
2022/08/19 06:16:22;;;;;;;21.65;7.30;;;22.10;99.90;;;;;;5025949;28;20044;-49
2022/08/19 06:19:26;;;;;;;28.08;7.63;;;21.80;99.90;;;;;;5037684;28;20503;-49
2022/08/19 06:22:30;;;;;;;19.25;8.63;;;21.70;99.90;;;;;;5035842;28;20048;-49
2022/08/19 06:25:34;;;;;;;22.80;9.05;;;21.20;99.90;;;;;;5037359;28;20047;-52
2022/08/19 06:28:42;;;;;;;26.15;10.07;;;21.10;99.90;;;;;;5031324;28;20796;-50
2022/08/19 06:31:49;;;;;;;32.38;9.98;;;20.90;99.90;;;;;;5029897;28;20048;-49
2022/08/19 06:34:53;;;;;;;30.27;12.15;;;20.80;99.90;;;;;;5039288;28;20407;-51
2022/08/19 06:37:57;;;;;;;36.92;12.70;;;20.70;99.90;;;;;;5032894;28;20041;-48
2022/08/19 06:41:03;;;;;;;36.53;12.75;;;20.60;99.90;;;;;;5040155;28;20056;-50
2022/08/19 06:44:08;;;;;;;35.40;13.75;;;20.60;99.90;;;;;;5049659;28;20052;-52
2022/08/19 06:47:15;;;;;;;23.92;13.07;;;20.40;99.90;;;;;;5037202;28;20048;-49
2022/08/19 06:50:19;;;;;;;34.85;13.07;;;20.50;99.90;;;;;;5030486;28;20056;-49
2022/08/19 06:53:23;;;;;;;27.27;12.32;;;20.60;99.90;;;;;;5038060;28;20060;-51
2022/08/19 06:56:34;;;;;;;24.23;9.02;;;20.60;99.90;;;;;;5034621;28;20036;-53
2022/08/19 06:59:38;;;;;;;19.30;7.75;;;20.90;99.90;;;;;;5051506;28;20044;-51
2022/08/19 07:02:43;;;;;;;18.20;6.80;;;21.50;99.90;;;;;;5039087;28;20044;-52
2022/08/19 07:05:48;;;;;;;16.02;7.10;;;21.90;99.90;;;;;;5037975;28;20048;-49
2022/08/19 07:08:52;;;;;;;18.25;6.47;;;22.10;99.90;;;;;;5038420;28;20036;-50
2022/08/19 07:11:56;;;;;;;22.55;5.93;;;22.20;99.90;;;;;;5031447;28;20104;-49
2022/08/19 07:15:02;;;;;;;20.30;5.80;;;22.40;99.90;;;;;;5041511;28;20048;-51
2022/08/19 07:18:06;;;;;;;14.38;7.00;;;22.50;99.90;;;;;;5036866;28;20044;-51
2022/08/19 07:21:13;;;;;;;23.20;6.03;;;22.50;99.90;;;;;;5041522;28;20048;-52
2022/08/19 07:24:18;;;;;;;14.95;5.30;;;22.70;99.90;;;;;;5039557;28;20045;-50
2022/08/19 07:27:22;;;;;;;23.60;8.13;;;22.80;99.90;;;;;;5025090;28;20051;-52
2022/08/19 07:30:26;;;;;;;16.00;5.57;;;23.00;99.90;;;;;;5035157;28;20047;-52
2022/08/19 07:33:32;;;;;;;20.60;5.15;;;23.30;99.90;;;;;;5027632;28;20044;-49
2022/08/19 07:36:40;;;;;;;17.95;5.05;;;23.70;99.90;;;;;;5036349;28;20048;-52
2022/08/19 07:39:44;;;;;;;13.98;4.47;;;25.10;99.90;;;;;;5022780;28;20044;-49
2022/08/19 07:42:48;;;;;;;19.30;5.15;;;27.10;99.90;;;;;;5034951;28;20057;-49
2022/08/19 07:45:55;;;;;;;13.45;4.28;;;28.30;99.90;;;;;;5034432;28;20041;-49
2022/08/19 07:49:00;;;;;;;18.38;4.68;;;29.70;99.90;;;;;;5045240;28;20408;-49
2022/08/19 07:52:07;;;;;;;18.25;4.80;;;30.10;99.90;;;;;;5041071;28;20060;-51
2022/08/19 07:55:11;;;;;;;16.35;4.13;;;31.00;99.90;;;;;;5040400;28;20044;-53
2022/08/19 07:58:19;;;;;;;16.73;3.55;;;32.90;99.90;;;;;;5038933;28;20049;-49
2022/08/19 08:01:26;;;;;;;19.40;4.97;;;32.20;99.90;;;;;;5030873;28;20052;-49
2022/08/19 08:11:19;;;;;;;14.02;4.38;;;27.10;99.90;;;;;;5041157;28;20052;-49
2022/08/19 08:14:27;;;;;;;11.93;3.22;;;27.50;99.90;;;;;;5031312;28;20036;-49
2022/08/19 08:17:32;;;;;;;14.18;3.63;;;28.70;99.90;;;;;;5040884;28;20055;-52
2022/08/19 08:20:36;;;;;;;11.60;3.10;;;29.60;99.90;;;;;;5023996;28;20052;-50
2022/08/19 08:23:40;;;;;;;13.15;2.60;;;30.70;99.90;;;;;;5037035;28;20440;-49
2022/08/19 08:26:44;;;;;;;17.75;3.17;;;32.20;99.90;;;;;;5010275;28;20057;-50
2022/08/19 08:29:48;;;;;;;10.82;2.72;;;32.50;99.90;;;;;;5026308;28;20551;-50
2022/08/19 08:32:52;;;;;;;8.75;2.13;;;34.00;99.90;;;;;;5029036;28;20056;-51
2022/08/19 08:35:57;;;;;;;9.40;2.63;;;33.80;99.90;;;;;;5028739;28;20038;-50
2022/08/19 08:39:01;;;;;;;8.15;2.13;;;33.50;99.90;;;;;;5038766;28;20412;-49
2022/08/19 08:42:16;;;;;;;11.50;2.38;;;34.80;99.00;;;;;;5043098;28;20045;-50
2022/08/19 08:45:21;;;;;;;10.70;2.65;;;37.00;97.40;;;;;;5036346;28;20044;-49
2022/08/19 08:48:41;;;;;;;8.02;1.80;;;32.90;99.90;;;;;;5026097;28;20048;-54
2022/08/19 08:51:52;;;;;;;12.20;2.30;;;35.90;98.30;;;;;;5032722;28;20052;-54
2022/08/19 08:54:59;;;;;;;8.27;2.10;;;37.40;96.30;;;;;;5035053;28;20071;-50
2022/08/19 08:58:15;;;;;;;6.03;1.90;;;38.40;93.60;;;;;;5022722;28;20044;-50
2022/08/19 09:01:19;;;;;;;4.60;1.35;;;39.00;93.30;;;;;;5023044;28;20042;-52
2022/08/19 09:04:23;;;;;;;6.30;1.90;;;39.30;90.60;;;;;;5029454;28;20038;-50
2022/08/19 09:08:02;;;;;;;7.25;2.25;;;40.10;91.00;;;;;;5033660;28;20037;-51
2022/08/19 09:11:14;;;;;;;6.10;2.25;;;38.80;91.20;;;;;;5035261;28;20053;-49
2022/08/19 09:14:53;;;;;;;4.20;1.80;;;40.20;90.20;;;;;;5013077;28;20084;-52
2022/08/19 09:18:04;;;;;;;5.47;1.47;;;37.50;88.30;;;;;;5036302;28;20497;-50
2022/08/19 09:21:08;;;;;;;7.55;1.80;;;35.30;93.00;;;;;;5029233;28;20297;-53
2022/08/19 09:24:12;;;;;;;6.85;2.03;;;35.00;94.30;;;;;;5028884;28;20496;-49
2022/08/19 09:27:16;;;;;;;10.07;2.17;;;34.30;95.00;;;;;;5038412;28;20049;-52
2022/08/19 09:30:24;;;;;;;11.45;3.08;;;33.20;94.60;;;;;;5037044;28;20052;-50
2022/08/19 09:33:28;;;;;;;5.68;1.75;;;30.70;98.50;;;;;;5032082;28;20044;-51
2022/08/19 09:36:33;;;;;;;9.75;1.92;;;29.50;99.90;;;;;;5022803;28;20044;-51
2022/08/19 09:39:38;;;;;;;7.10;2.22;;;29.40;99.90;;;;;;5019004;28;20061;-48
2022/08/19 09:42:44;;;;;;;11.05;3.13;;;29.30;99.90;;;;;;5027064;28;20041;-53
2022/08/19 09:45:48;;;;;;;8.77;2.85;;;29.60;99.90;;;;;;5032565;28;20443;-50
2022/08/19 09:48:53;;;;;;;9.93;3.22;;;29.30;99.90;;;;;;5034942;28;20503;-53
2022/08/19 09:51:58;;;;;;;9.40;2.83;;;29.40;99.90;;;;;;5018090;28;20056;-51
2022/08/19 09:55:08;;;;;;;10.82;3.08;;;29.50;99.90;;;;;;5029217;28;20045;-50
2022/08/19 09:58:12;;;;;;;11.30;2.53;;;28.10;99.90;;;;;;5029144;28;20052;-49
2022/08/19 10:01:24;;;;;;;10.95;3.63;;;27.50;99.90;;;;;;5028379;28;20045;-50
2022/08/19 10:05:47;;;;;;;11.00;2.65;;;27.40;99.90;;;;;;5036800;28;20060;-48
2022/08/19 10:07:52;;;;;;;9.52;2.63;;;27.20;99.90;;;;;;5029617;28;20045;-50
2022/08/19 10:10:57;;;;;;;19.65;3.33;;;28.20;99.90;;;;;;5042524;28;20040;-53
2022/08/19 10:14:05;;;;;;;11.88;3.42;;;27.80;99.90;;;;;;5032500;28;20041;-50
2022/08/19 10:17:09;;;;;;;9.18;2.80;;;26.80;99.90;;;;;;5031451;28;20032;-53
2022/08/19 10:20:13;;;;;;;11.48;2.63;;;27.50;99.90;;;;;;5032809;28;20035;-49
2022/08/19 10:23:18;;;;;;;7.68;2.78;;;27.50;99.90;;;;;;5032574;28;20401;-49
2022/08/19 10:26:29;;;;;;;4.60;2.13;;;27.50;99.90;;;;;;5032872;28;20045;-49
2022/08/19 10:29:36;;;;;;;9.52;3.08;;;28.30;99.90;;;;;;5032580;28;20038;-52
2022/08/19 10:32:40;;;;;;;5.18;2.15;;;28.40;99.90;;;;;;5031638;28;20037;-53
2022/08/19 10:35:46;;;;;;;5.57;2.30;;;27.30;99.90;;;;;;5032564;28;20044;-53
2022/08/19 10:38:52;;;;;;;6.93;2.15;;;27.00;99.90;;;;;;5032394;28;20405;-52
2022/08/19 10:41:56;;;;;;;6.13;1.90;;;27.10;99.90;;;;;;5032007;28;20048;-50
2022/08/19 10:45:01;;;;;;;9.93;2.47;;;27.20;99.90;;;;;;5031957;28;20264;-50
2022/08/19 10:48:05;;;;;;;8.15;2.45;;;27.10;99.90;;;;;;5032196;28;20052;-49
2022/08/19 10:57:55;;;;;;;8.27;2.30;;;25.60;99.90;;;;;;5032401;28;20049;-51
2022/08/19 11:00:59;;;;;;;14.60;3.50;;;24.70;99.90;;;;;;5032345;28;20049;-52
2022/08/19 11:04:04;;;;;;;7.55;2.60;;;24.50;99.90;;;;;;5031099;28;20044;-49
2022/08/19 11:07:11;;;;;;;9.45;3.00;;;24.10;99.90;;;;;;5032246;28;20061;-53
2022/08/19 11:10:18;;;;;;;5.10;2.50;;;23.40;99.90;;;;;;5032058;28;20052;-53
2022/08/19 11:13:23;;;;;;;10.30;2.92;;;23.20;99.90;;;;;;5031480;28;20044;-49
2022/08/19 11:16:29;;;;;;;9.40;2.45;;;23.20;99.90;;;;;;5031913;28;20113;-48
2022/08/19 11:19:34;;;;;;;7.05;2.03;;;23.00;99.90;;;;;;5031606;28;20523;-48
2022/08/19 11:22:38;;;;;;;6.47;2.00;;;22.70;99.90;;;;;;5030911;28;20049;-53
2022/08/19 11:25:42;;;;;;;6.30;1.90;;;22.20;99.90;;;;;;5031780;28;20033;-53
2022/08/19 11:28:47;;;;;;;2.78;1.48;;;22.00;99.90;;;;;;5031473;28;20056;-50
2022/08/19 11:31:51;;;;;;;3.38;1.63;;;21.90;99.90;;;;;;5031254;28;20413;-50
2022/08/19 11:34:55;;;;;;;3.33;1.48;;;22.50;99.90;;;;;;5031311;28;20037;-49
2022/08/19 11:38:01;;;;;;;2.08;1.00;;;23.40;99.90;;;;;;5031440;28;20033;-52
2022/08/19 11:41:07;;;;;;;2.00;0.73;;;24.30;99.90;;;;;;5031325;28;20041;-53
2022/08/19 11:44:13;;;;;;;2.42;0.80;;;24.70;99.90;;;;;;5030773;28;20048;-50
2022/08/19 11:47:18;;;;;;;2.08;0.57;;;25.00;99.90;;;;;;5031145;28;20545;-53
2022/08/19 11:50:24;;;;;;;2.70;0.60;;;25.40;99.90;;;;;;5031058;28;20036;-51
2022/08/19 11:53:30;;;;;;;3.03;1.08;;;25.90;99.90;;;;;;5030243;28;20045;-49
2022/08/19 11:56:34;;;;;;;1.75;0.77;;;26.60;99.90;;;;;;5031071;28;20048;-52
2022/08/19 11:59:38;;;;;;;0.88;0.80;;;27.10;99.90;;;;;;5030873;28;20045;-50
2022/08/19 12:02:42;;;;;;;1.27;0.70;;;27.50;99.90;;;;;;5030412;28;20037;-51
2022/08/19 12:05:46;;;;;;;1.33;0.60;;;27.60;99.90;;;;;;5030853;28;20412;-53
2022/08/19 12:08:50;;;;;;;1.58;0.90;;;27.40;99.90;;;;;;5030618;28;20054;-50
2022/08/19 12:11:54;;;;;;;1.27;0.73;;;27.20;99.90;;;;;;5030443;28;20041;-51
2022/08/19 12:14:58;;;;;;;2.35;1.30;;;27.10;99.90;;;;;;5030032;28;20041;-51
2022/08/19 12:18:02;;;;;;;2.67;0.70;;;27.20;99.90;;;;;;5030499;28;20033;-52
2022/08/19 12:21:06;;;;;;;1.63;0.70;;;27.40;99.90;;;;;;5030263;28;20049;-51
2022/08/19 12:24:11;;;;;;;2.45;0.95;;;27.40;99.90;;;;;;5030138;28;20054;-53
2022/08/19 12:27:15;;;;;;;5.28;1.50;;;26.60;99.90;;;;;;5030295;28;20519;-52
2022/08/19 12:30:20;;;;;;;2.35;1.20;;;25.80;99.90;;;;;;5030304;28;20515;-49
2022/08/19 12:33:27;;;;;;;2.25;1.15;;;25.30;99.90;;;;;;5028855;28;20053;-50
2022/08/19 12:36:31;;;;;;;3.45;1.60;;;24.90;99.90;;;;;;5030488;28;20416;-52
2022/08/19 12:39:37;;;;;;;3.25;1.40;;;24.90;99.90;;;;;;5030257;28;20507;-49
2022/08/19 12:42:43;;;;;;;2.03;1.00;;;25.00;99.90;;;;;;5029833;28;20045;-49
2022/08/19 12:45:47;;;;;;;2.45;1.10;;;25.40;99.90;;;;;;5030295;28;20056;-50
2022/08/19 12:48:54;;;;;;;3.22;1.25;;;25.70;99.90;;;;;;5030216;28;20037;-52
2022/08/19 12:51:58;;;;;;;2.85;1.08;;;26.50;99.90;;;;;;5029338;28;20050;-53
2022/08/19 12:55:05;;;;;;;2.75;1.20;;;27.60;99.90;;;;;;5029836;28;20029;-48
2022/08/19 12:58:09;;;;;;;3.20;1.10;;;29.00;99.90;;;;;;5030094;28;20040;-50
2022/08/19 13:01:15;;;;;;;1.35;0.70;;;30.20;99.90;;;;;;5030094;28;20412;-54
2022/08/19 13:04:19;;;;;;;4.15;0.93;;;31.50;99.90;;;;;;5028258;28;20036;-50
2022/08/19 13:07:23;;;;;;;1.45;0.90;;;32.70;99.90;;;;;;5029964;28;20032;-53
2022/08/19 13:10:34;;;;;;;1.48;0.90;;;32.90;99.90;;;;;;5029603;28;20044;-53
2022/08/19 13:13:41;;;;;;;1.55;0.60;;;33.60;99.00;;;;;;5028996;28;20048;-50
2022/08/19 13:16:44;;;;;;;1.77;0.60;;;34.30;97.50;;;;;;5029844;28;20515;-50
2022/08/19 13:19:50;;;;;;;2.65;0.70;;;33.60;95.90;;;;;;5029576;28;20052;-53
2022/08/19 13:22:55;;;;;;;3.75;0.85;;;33.60;96.00;;;;;;5029728;28;20048;-50
2022/08/19 13:26:02;;;;;;;1.85;0.70;;;33.70;97.40;;;;;;5029448;28;20051;-51
2022/08/19 13:35:58;;;;;;;1.85;0.82;;;34.10;94.90;;;;;;5029729;28;20053;-49
2022/08/19 13:39:05;;;;;;;1.00;0.60;;;33.60;95.30;;;;;;5029556;28;20052;-49
2022/08/19 13:42:10;;;;;;;2.13;0.60;;;33.10;97.10;;;;;;5029724;28;20112;-50
2022/08/19 13:45:19;;;;;;;1.20;0.80;;;32.90;95.60;;;;;;5030761;28;20064;-51
2022/08/19 13:48:26;;;;;;;0.88;0.75;;;32.20;95.20;;;;;;5033669;28;20049;-53
2022/08/19 13:51:30;;;;;;;0.63;0.60;;;31.70;95.20;;;;;;5033362;28;20044;-49
2022/08/19 13:54:34;;;;;;;1.02;0.80;;;31.10;94.60;;;;;;5032931;28;20048;-49
2022/08/19 13:57:38;;;;;;;3.65;0.95;;;31.30;94.00;;;;;;5033926;28;20041;-50
2022/08/19 14:00:45;;;;;;;1.73;1.08;;;31.50;94.70;;;;;;5033314;28;20040;-49
2022/08/19 14:03:50;;;;;;;2.88;1.10;;;31.70;95.50;;;;;;5032697;28;20061;-53
2022/08/19 14:06:54;;;;;;;1.45;0.75;;;31.90;94.90;;;;;;5033313;28;20053;-48
2022/08/19 14:10:00;;;;;;;1.40;0.90;;;31.90;94.80;;;;;;5033233;28;20044;-51
2022/08/19 14:13:04;;;;;;;1.25;0.90;;;31.90;94.20;;;;;;5032888;28;20056;-49
2022/08/19 14:16:13;;;;;;;1.50;0.75;;;31.70;95.20;;;;;;5032767;28;20040;-49
2022/08/19 14:19:17;;;;;;;3.38;1.00;;;31.70;94.50;;;;;;5032748;28;20040;-53
2022/08/19 14:22:21;;;;;;;1.67;0.95;;;31.50;94.90;;;;;;5032523;28;20044;-52
2022/08/19 14:25:28;;;;;;;2.25;0.95;;;31.40;95.90;;;;;;5032294;28;20056;-49
2022/08/19 14:28:31;;;;;;;3.15;0.90;;;30.90;96.10;;;;;;5032401;28;20041;-50
2022/08/19 14:31:35;;;;;;;2.33;1.13;;;30.60;96.80;;;;;;5032351;28;20044;-49
2022/08/19 14:34:39;;;;;;;1.30;0.82;;;30.30;96.40;;;;;;5031992;28;20064;-49
2022/08/19 14:37:45;;;;;;;11.07;0.90;;;30.00;97.50;;;;;;5032420;28;20044;-51
2022/08/19 14:40:49;;;;;;;2.88;1.00;;;30.00;96.90;;;;;;5032317;28;20503;-48
2022/08/19 14:43:53;;;;;;;2.17;1.17;;;29.70;96.90;;;;;;5032128;28;20061;-50
2022/08/19 14:46:57;;;;;;;1.25;0.93;;;29.70;97.10;;;;;;5032391;28;20048;-49
2022/08/19 14:50:02;;;;;;;3.33;1.13;;;29.60;97.30;;;;;;5032245;28;20049;-49
2022/08/19 14:53:08;;;;;;;4.25;1.13;;;29.70;97.30;;;;;;5031788;28;20048;-49
2022/08/19 14:56:15;;;;;;;3.33;1.08;;;29.80;98.10;;;;;;5031469;28;20068;-49
2022/08/19 14:59:20;;;;;;;2.33;1.02;;;30.20;97.30;;;;;;5031782;28;20040;-51
2022/08/19 15:02:24;;;;;;;2.33;0.90;;;30.30;96.00;;;;;;5032006;28;20061;-51
2022/08/19 15:05:28;;;;;;;3.22;1.02;;;30.10;95.60;;;;;;5031514;28;20048;-49
2022/08/19 15:08:35;;;;;;;3.40;1.15;;;30.00;96.80;;;;;;5031899;28;20056;-52
2022/08/19 15:11:39;;;;;;;2.45;1.00;;;29.60;96.30;;;;;;5031339;28;20045;-51
2022/08/19 15:14:49;;;;;;;3.25;1.40;;;29.10;95.90;;;;;;5030982;28;20049;-50
2022/08/19 15:17:53;;;;;;;7.05;1.00;;;28.90;97.20;;;;;;5031751;28;20056;-52
2022/08/19 15:20:57;;;;;;;2.53;1.10;;;28.90;97.10;;;;;;5031667;28;20048;-51
2022/08/19 15:24:01;;;;;;;5.28;1.10;;;28.70;97.00;;;;;;5031603;28;20512;-50
2022/08/19 15:27:05;;;;;;;3.20;1.10;;;28.40;97.20;;;;;;5031604;28;20065;-51
2022/08/19 15:30:11;;;;;;;3.83;1.10;;;28.20;98.10;;;;;;5030488;28;20049;-50
2022/08/19 15:33:15;;;;;;;2.10;1.10;;;28.30;99.00;;;;;;5030655;28;20053;-49
2022/08/19 15:36:19;;;;;;;2.33;1.50;;;28.30;98.40;;;;;;5031090;28;20049;-51
2022/08/19 15:39:23;;;;;;;4.35;1.42;;;28.30;98.00;;;;;;5031319;28;20048;-49
2022/08/19 15:42:27;;;;;;;1.88;0.98;;;28.40;98.30;;;;;;5031319;28;20044;-49
2022/08/19 15:45:32;;;;;;;2.03;1.20;;;28.30;97.80;;;;;;5030884;28;20048;-53
2022/08/19 15:48:36;;;;;;;9.65;1.27;;;28.30;98.00;;;;;;5030245;28;20056;-49
2022/08/19 15:51:43;;;;;;;2.22;0.95;;;28.30;97.10;;;;;;5030932;28;20404;-49
2022/08/19 15:54:47;;;;;;;3.28;1.00;;;28.30;96.70;;;;;;5029919;28;20048;-50
2022/08/19 16:07:59;;;;;;;1.90;1.00;;;27.50;98.70;;;;;;5030222;28;20053;-48
2022/08/19 16:11:03;;;;;;;5.95;1.23;;;27.40;99.70;;;;;;5030738;28;20060;-49
2022/08/19 16:14:08;;;;;;;4.25;1.10;;;27.30;99.90;;;;;;5030443;28;20052;-50
2022/08/19 16:17:12;;;;;;;2.75;1.10;;;27.30;99.90;;;;;;5030384;28;20408;-51
2022/08/19 16:20:16;;;;;;;4.53;1.20;;;27.10;99.90;;;;;;5030544;28;20056;-49
2022/08/19 16:23:20;;;;;;;2.20;1.23;;;27.10;99.90;;;;;;5030151;28;20040;-51
2022/08/19 16:26:28;;;;;;;2.17;1.20;;;27.00;99.90;;;;;;5030390;28;20056;-49
2022/08/19 16:29:35;;;;;;;3.53;1.13;;;26.90;99.90;;;;;;5030634;28;20045;-50
2022/08/19 16:32:42;;;;;;;2.70;1.50;;;26.60;99.90;;;;;;5030348;28;20052;-49